OAL195 UHPP-UHPT

Flight info

Callsign OAL195
Flight time 1h 29m
Altitude 41000
Route TUPAN B244 KUTAD
Aircraft HDJT/L-SABDGRWY/H

Departure

Time 2026-04-30 18:02
Airport Yelizovo Airport (UHPP)

Arrival

Time 2026-04-30 19:31
Airport Tilichiki Airport (UHPT)
Time Latitude Longitude Altitude Speed Heading
2026-04-30 17:48 53.17064 158.42807 234 ft 0 kts 59°
2026-04-30 17:55 53.17112 158.43046 224 ft 19 kts 60°
2026-04-30 17:56 53.17389 158.43834 207 ft 17 kts 59°
2026-04-30 17:57 53.17553 158.44417 207 ft 19 kts 68°
2026-04-30 17:58 53.17592 158.44946 210 ft 14 kts 155°
2026-04-30 17:59 53.17002 158.45353 215 ft 24 kts 158°
2026-04-30 18:00 53.16378 158.45788 214 ft 22 kts 157°
2026-04-30 18:00 53.15950 158.46043 218 ft 21 kts 205°
2026-04-30 18:01 53.15916 158.45762 219 ft 0 kts 338°
2026-04-30 18:02 53.17337 158.44803 766 ft 148 kts 337°
2026-04-30 18:02 53.20803 158.42343 3172 ft 196 kts 336°
2026-04-30 18:03 53.24733 158.39630 6160 ft 214 kts 337°
2026-04-30 18:04 53.28928 158.36717 9335 ft 220 kts 336°
2026-04-30 18:05 53.34754 158.32666 13035 ft 232 kts 337°
2026-04-30 18:06 53.40145 158.37157 16383 ft 258 kts 56°
2026-04-30 18:07 53.43914 158.47757 19534 ft 271 kts 55°
2026-04-30 18:08 53.46865 158.56037 21791 ft 280 kts 55°
2026-04-30 18:09 53.50937 158.67511 24544 ft 292 kts 56°
2026-04-30 18:10 53.55166 158.79476 26803 ft 305 kts 56°
2026-04-30 18:11 53.59581 158.92034 28825 ft 318 kts 56°
2026-04-30 18:11 53.63001 159.01781 30156 ft 326 kts 54°
2026-04-30 18:12 53.67873 159.09436 31380 ft 321 kts 34°
2026-04-30 18:13 53.71407 159.14074 32215 ft 322 kts 34°
2026-04-30 18:13 53.76116 159.20232 33310 ft 322 kts 34°
2026-04-30 18:14 53.80255 159.25666 34147 ft 322 kts 34°
2026-04-30 18:15 53.85573 159.32668 35060 ft 323 kts 34°
2026-04-30 18:15 53.90881 159.39678 35941 ft 324 kts 34°
2026-04-30 18:16 53.94439 159.44391 36503 ft 325 kts 34°
2026-04-30 18:16 53.98004 159.49124 37074 ft 325 kts 34°
2026-04-30 18:17 53.99788 159.51496 37354 ft 326 kts 34°
2026-04-30 18:17 54.01575 159.53875 37631 ft 326 kts 34°
2026-04-30 18:17 54.05147 159.58639 38191 ft 326 kts 34°
2026-04-30 18:18 54.06936 159.61028 38460 ft 327 kts 34°
2026-04-30 18:18 54.08724 159.63418 38683 ft 327 kts 34°
2026-04-30 18:18 54.10511 159.65811 38884 ft 327 kts 34°
2026-04-30 18:18 54.12303 159.68212 39081 ft 327 kts 35°
2026-04-30 18:19 54.14069 159.70583 39272 ft 327 kts 35°
2026-04-30 18:19 54.15855 159.72982 39464 ft 327 kts 35°
2026-04-30 18:19 54.17646 159.75389 39676 ft 327 kts 35°
2026-04-30 18:19 54.19436 159.77800 39875 ft 328 kts 35°
2026-04-30 18:20 54.21224 159.80211 40063 ft 328 kts 35°
2026-04-30 18:20 54.23016 159.82623 40252 ft 328 kts 34°
2026-04-30 18:20 54.24809 159.85028 40439 ft 328 kts 34°
2026-04-30 18:20 54.26601 159.87438 40620 ft 328 kts 34°
2026-04-30 18:21 54.28393 159.89853 40793 ft 328 kts 35°
2026-04-30 18:21 54.32031 159.94759 40886 ft 339 kts 35°
2026-04-30 18:22 54.35799 159.99859 40879 ft 350 kts 35°
2026-04-30 18:22 54.41655 160.07807 40867 ft 364 kts 35°
2026-04-30 18:23 54.45660 160.13260 40877 ft 370 kts 36°
2026-04-30 18:23 54.49713 160.18791 40874 ft 376 kts 36°
2026-04-30 18:24 54.55923 160.27296 40874 ft 383 kts 36°
2026-04-30 18:25 54.60108 160.33046 40887 ft 386 kts 36°
2026-04-30 18:25 54.66467 160.41812 40882 ft 394 kts 36°
2026-04-30 18:26 54.72923 160.50751 40871 ft 401 kts 36°
2026-04-30 18:27 54.79483 160.59872 40876 ft 405 kts 36°
2026-04-30 18:28 54.86101 160.69113 40887 ft 408 kts 37°
2026-04-30 18:28 54.92746 160.78429 40877 ft 410 kts 37°
2026-04-30 18:29 55.01594 160.90898 40882 ft 411 kts 37°
2026-04-30 18:30 55.10508 161.03534 40888 ft 412 kts 37°
2026-04-30 18:31 55.17162 161.13015 40888 ft 413 kts 37°
2026-04-30 18:32 55.23841 161.22575 40879 ft 413 kts 37°
2026-04-30 18:33 55.30512 161.32165 40883 ft 413 kts 37°
2026-04-30 18:33 55.37145 161.41742 40876 ft 413 kts 37°
2026-04-30 18:34 55.43802 161.51399 40867 ft 413 kts 38°
2026-04-30 18:35 55.48234 161.57851 40869 ft 413 kts 38°
2026-04-30 18:35 55.52667 161.64325 40869 ft 413 kts 38°
2026-04-30 18:36 55.59299 161.74048 40859 ft 413 kts 38°
2026-04-30 18:37 55.65900 161.83766 40855 ft 413 kts 38°
2026-04-30 18:37 55.70312 161.90289 40855 ft 413 kts 38°
2026-04-30 18:38 55.74719 161.96823 40862 ft 413 kts 38°
2026-04-30 18:38 55.79124 162.03374 40847 ft 413 kts 38°
2026-04-30 18:39 55.83533 162.09951 40845 ft 413 kts 38°
2026-04-30 18:39 55.87903 162.16490 40844 ft 413 kts 38°
2026-04-30 18:40 55.92297 162.23083 40845 ft 413 kts 38°
2026-04-30 18:40 55.96698 162.29704 40847 ft 413 kts 39°
2026-04-30 18:41 56.01093 162.36338 40847 ft 413 kts 39°
2026-04-30 18:41 56.05463 162.42954 40847 ft 413 kts 39°
2026-04-30 18:42 56.09112 162.48494 40841 ft 413 kts 39°
2026-04-30 18:42 56.15689 162.58517 40843 ft 413 kts 39°
2026-04-30 18:45 56.40842 162.81939 40855 ft 411 kts 21°
2026-04-30 18:45 56.43499 162.83852 40855 ft 411 kts 21°
2026-04-30 18:46 56.48815 162.87676 40855 ft 411 kts 21°
2026-04-30 18:46 56.54129 162.91512 40855 ft 411 kts 21°
2026-04-30 18:47 56.59432 162.95351 40855 ft 411 kts 21°
2026-04-30 18:47 56.64739 162.99204 40855 ft 411 kts 21°
2026-04-30 18:48 56.70019 163.03049 40850 ft 411 kts 21°
2026-04-30 18:48 56.75328 163.06912 40849 ft 411 kts 21°
2026-04-30 18:49 56.80638 163.10770 40852 ft 411 kts 21°
2026-04-30 18:49 56.85952 163.14652 40847 ft 411 kts 21°
2026-04-30 18:50 56.91259 163.18538 40845 ft 411 kts 21°
2026-04-30 18:50 56.96566 163.22437 40845 ft 411 kts 21°
2026-04-30 18:51 57.01873 163.26346 40845 ft 411 kts 21°
2026-04-30 18:51 57.07138 163.30239 40844 ft 410 kts 20°
2026-04-30 18:52 57.12432 163.34163 40839 ft 410 kts 21°
2026-04-30 18:52 57.17727 163.38100 40841 ft 410 kts 21°
2026-04-30 18:53 57.23012 163.42043 40839 ft 410 kts 21°
2026-04-30 18:53 57.28300 163.46000 40842 ft 410 kts 21°
2026-04-30 18:54 57.33585 163.49967 40843 ft 410 kts 21°
2026-04-30 18:54 57.38874 163.53949 40834 ft 410 kts 21°
2026-04-30 18:55 57.44159 163.57941 40840 ft 410 kts 21°
2026-04-30 18:55 57.52074 163.63943 40849 ft 410 kts 21°
2026-04-30 18:56 57.59945 163.69939 40844 ft 409 kts 21°
2026-04-30 18:57 57.67846 163.75986 40845 ft 409 kts 21°
2026-04-30 18:57 57.73107 163.80029 40842 ft 409 kts 21°
2026-04-30 18:58 57.81005 163.86122 40841 ft 409 kts 21°
2026-04-30 18:59 57.88886 163.92230 40841 ft 408 kts 21°
2026-04-30 19:00 57.99391 164.00417 40835 ft 408 kts 22°
2026-04-30 19:01 58.09869 164.08637 40841 ft 409 kts 22°
2026-04-30 19:02 58.17748 164.14851 40829 ft 409 kts 22°
2026-04-30 19:03 58.28257 164.23187 40824 ft 409 kts 22°
2026-04-30 19:04 58.38765 164.31577 40831 ft 409 kts 22°
2026-04-30 19:04 58.43997 164.35775 40376 ft 403 kts 22°
2026-04-30 19:05 58.49152 164.39923 39323 ft 401 kts 22°
2026-04-30 19:05 58.54289 164.44071 38221 ft 400 kts 22°
2026-04-30 19:06 58.59421 164.48227 37153 ft 401 kts 22°
2026-04-30 19:06 58.62003 164.50324 36617 ft 403 kts 22°
2026-04-30 19:06 58.67104 164.54476 35565 ft 399 kts 22°
2026-04-30 19:07 58.72221 164.58653 34518 ft 400 kts 22°
2026-04-30 19:07 58.74784 164.60751 33991 ft 400 kts 22°
2026-04-30 19:08 58.79906 164.64954 32881 ft 398 kts 22°
2026-04-30 19:08 58.84995 164.69142 31834 ft 397 kts 22°
2026-04-30 19:08 58.87528 164.71232 31311 ft 397 kts 22°
2026-04-30 19:09 58.92547 164.75383 30274 ft 393 kts 22°
2026-04-30 19:09 58.95054 164.77461 29728 ft 391 kts 22°
2026-04-30 19:09 58.97548 164.79531 29192 ft 391 kts 22°
2026-04-30 19:10 59.02559 164.83702 28150 ft 391 kts 23°
2026-04-30 19:10 59.07486 164.87815 27136 ft 380 kts 23°
2026-04-30 19:11 59.09899 164.89835 26635 ft 375 kts 23°
2026-04-30 19:11 59.14656 164.93825 25652 ft 368 kts 23°
2026-04-30 19:11 59.16990 164.95788 25169 ft 359 kts 23°
2026-04-30 19:12 59.19194 164.97643 24708 ft 344 kts 23°
2026-04-30 19:12 59.21387 164.99492 24255 ft 342 kts 23°
2026-04-30 19:12 59.23563 165.01327 23805 ft 338 kts 23°
2026-04-30 19:13 59.27838 165.04945 22903 ft 331 kts 23°
2026-04-30 19:13 59.32028 165.08500 21991 ft 326 kts 23°
2026-04-30 19:13 59.34098 165.10259 21579 ft 323 kts 24°
2026-04-30 19:14 59.36153 165.12008 21156 ft 321 kts 24°
2026-04-30 19:14 59.38200 165.13752 20724 ft 319 kts 24°
2026-04-30 19:14 59.40231 165.15486 20304 ft 318 kts 24°
2026-04-30 19:14 59.42255 165.17215 19887 ft 316 kts 24°
2026-04-30 19:15 59.44268 165.18938 19467 ft 314 kts 24°
2026-04-30 19:15 59.48228 165.22332 18650 ft 311 kts 24°
2026-04-30 19:15 59.50204 165.24030 18244 ft 309 kts 24°
2026-04-30 19:16 59.52174 165.25723 17806 ft 308 kts 24°
2026-04-30 19:16 59.54140 165.27418 17393 ft 311 kts 23°
2026-04-30 19:16 59.58123 165.30854 16562 ft 311 kts 23°
2026-04-30 19:17 59.60102 165.32565 16155 ft 310 kts 23°
2026-04-30 19:17 59.64038 165.35974 15339 ft 308 kts 23°
2026-04-30 19:17 59.65966 165.37646 14937 ft 304 kts 24°
2026-04-30 19:18 59.69195 165.40454 14269 ft 301 kts 23°
2026-04-30 19:18 59.71738 165.42669 13745 ft 300 kts 23°
2026-04-30 19:18 59.73645 165.44331 13329 ft 299 kts 23°
2026-04-30 19:19 59.75556 165.46001 12915 ft 301 kts 23°
2026-04-30 19:19 59.77467 165.47672 12524 ft 300 kts 23°
2026-04-30 19:19 59.81278 165.51011 11733 ft 298 kts 23°
2026-04-30 19:20 59.83177 165.52676 11340 ft 298 kts 23°
2026-04-30 19:20 59.85024 165.54302 10960 ft 280 kts 22°
2026-04-30 19:20 59.88386 165.57261 10264 ft 256 kts 22°
2026-04-30 19:21 59.90016 165.58697 9930 ft 256 kts 22°
2026-04-30 19:21 59.93279 165.61578 9400 ft 257 kts 22°
2026-04-30 19:22 59.96527 165.64453 8739 ft 254 kts 22°
2026-04-30 19:22 60.01181 165.69009 7751 ft 239 kts 25°
2026-04-30 19:23 60.05618 165.73467 6815 ft 237 kts 25°
2026-04-30 19:24 60.08535 165.76413 6195 ft 226 kts 25°
2026-04-30 19:24 60.09901 165.77795 5887 ft 214 kts 25°
2026-04-30 19:24 60.12440 165.80364 5353 ft 197 kts 25°
2026-04-30 19:25 60.16013 165.83986 4592 ft 189 kts 25°
2026-04-30 19:26 60.18348 165.86359 4094 ft 187 kts 25°
2026-04-30 19:26 60.20644 165.88695 3597 ft 185 kts 25°
2026-04-30 19:26 60.21786 165.89861 3352 ft 183 kts 25°
2026-04-30 19:27 60.24039 165.92161 2869 ft 177 kts 25°
2026-04-30 19:27 60.26183 165.94352 2407 ft 168 kts 25°
2026-04-30 19:28 60.27213 165.95405 2181 ft 164 kts 25°
2026-04-30 19:28 60.29267 165.97092 1757 ft 158 kts 14°
2026-04-30 19:29 60.31340 165.98299 1399 ft 153 kts 15°
2026-04-30 19:29 60.32369 165.98909 1224 ft 155 kts 15°
2026-04-30 19:30 60.35009 166.00474 650 ft 127 kts 15°
2026-04-30 19:30 60.36482 166.01347 357 ft 100 kts 15°
2026-04-30 19:31 60.37819 166.02140 136 ft 101 kts 15°
2026-04-30 19:31 60.38409 166.02514 96 ft 71 kts 17°
2026-04-30 19:31 60.38545 166.02713 93 ft 4 kts 117°
2026-04-30 19:32 60.38541 166.02731 93 ft 5 kts 117°
2026-04-30 19:32 60.38528 166.02781 94 ft 0 kts 116°